createdAt,value
2023-01-27T00:01:18.865Z,101220.78
2023-01-27T00:06:26.769Z,101212.25
2023-01-27T00:11:50.818Z,101224.19
2023-01-27T00:16:57.463Z,101223.34
2023-01-27T00:22:24.374Z,101226.69
2023-01-27T00:27:30.607Z,101224.13
2023-01-27T00:32:56.839Z,101228.38
2023-01-27T00:38:04.975Z,101233.50
2023-01-27T00:43:13.597Z,101227.53
2023-01-27T00:48:20.164Z,101229.22
2023-01-27T00:53:28.214Z,101236.03
2023-01-27T00:58:35.972Z,101225.81
2023-01-27T01:03:44.840Z,101230.16
2023-01-27T01:08:52.899Z,101223.25
2023-01-27T01:14:00.260Z,101219.00
2023-01-27T01:19:06.846Z,101215.56
2023-01-27T01:24:16.583Z,101214.69
2023-01-27T01:29:23.193Z,101221.53
2023-01-27T01:34:29.846Z,101220.56
2023-01-27T01:39:37.986Z,101224.78
2023-01-27T01:44:47.157Z,101229.91
2023-01-27T01:49:53.632Z,101222.22
2023-01-27T01:55:01.689Z,101215.47
2023-01-27T02:00:12.279Z,101219.72
2023-01-27T02:05:29.321Z,101221.38
2023-01-27T02:10:38.290Z,101223.06
2023-01-27T02:15:44.749Z,101235.91
2023-01-27T02:20:54.709Z,101229.06
2023-01-27T02:26:10.541Z,101230.78
2023-01-27T02:31:18.389Z,101233.47
2023-01-27T02:36:25.530Z,101233.53
2023-01-27T02:41:39.134Z,101230.88
2023-01-27T02:46:45.824Z,101228.28
2023-01-27T02:51:52.472Z,101224.78
2023-01-27T02:57:00.496Z,101228.22
2023-01-27T03:02:08.976Z,101228.22
2023-01-27T03:07:15.242Z,101224.88
2023-01-27T03:12:22.898Z,101230.00
2023-01-27T03:17:48.825Z,101232.56
2023-01-27T03:22:55.227Z,101232.47
2023-01-27T03:28:06.092Z,101239.34
2023-01-27T03:33:31.340Z,101235.88
2023-01-27T03:38:59.807Z,101244.44
2023-01-27T03:44:26.211Z,101243.63
2023-01-27T03:49:32.414Z,101252.19
2023-01-27T03:54:39.200Z,101245.31
2023-01-27T03:59:47.340Z,101246.28
2023-01-27T04:05:11.672Z,101245.41
2023-01-27T04:10:18.856Z,101258.28
2023-01-27T04:15:26.858Z,101253.97
2023-01-27T04:20:33.262Z,101263.41
2023-01-27T04:25:40.604Z,101260.81
2023-01-27T04:30:50.189Z,101273.56
2023-01-27T04:36:00.666Z,101272.63
2023-01-27T04:41:07.523Z,101280.34
2023-01-27T04:46:15.249Z,101278.53
2023-01-27T04:51:24.546Z,101279.38
2023-01-27T04:56:33.756Z,101276.88
2023-01-27T05:01:41.753Z,101284.47
2023-01-27T05:06:48.211Z,101284.38
2023-01-27T05:11:54.377Z,101291.22
2023-01-27T05:17:02.419Z,101295.38
2023-01-27T05:22:09.586Z,101308.22
2023-01-27T05:27:16.056Z,101310.63
2023-01-27T05:32:23.856Z,101313.19
2023-01-27T05:37:30.245Z,101311.50
2023-01-27T05:42:38.382Z,101309.78
2023-01-27T05:47:49.934Z,101315.00
2023-01-27T05:52:57.048Z,101331.28
2023-01-27T05:58:04.291Z,101334.75
2023-01-27T06:03:12.366Z,101346.78
2023-01-27T06:08:19.008Z,101340.88
2023-01-27T06:13:28.014Z,101340.84
2023-01-27T06:18:36.073Z,101344.94
2023-01-27T06:23:43.383Z,101346.56
2023-01-27T06:28:50.280Z,101356.66
2023-01-27T06:33:59.516Z,101357.50
2023-01-27T06:39:06.165Z,101359.22
2023-01-27T06:44:12.708Z,101362.53
2023-01-27T06:49:20.663Z,101362.50
2023-01-27T06:54:27.279Z,101359.88
2023-01-27T06:59:33.849Z,101367.44
2023-01-27T07:04:41.619Z,101365.72
2023-01-27T07:09:52.693Z,101369.78
2023-01-27T07:14:59.562Z,101370.69
2023-01-27T07:20:10.127Z,101382.56
2023-01-27T07:25:16.662Z,101376.50
2023-01-27T07:30:23.393Z,101369.88
2023-01-27T07:35:31.224Z,101373.41
2023-01-27T07:54:43.621Z,101377.91
2023-01-27T07:59:53.969Z,101389.63
2023-01-27T08:05:00.207Z,101393.06
2023-01-27T08:10:08.697Z,101400.66
2023-01-27T08:15:18.425Z,101404.09
2023-01-27T08:20:29.269Z,101404.19
2023-01-27T08:25:37.249Z,101406.88
2023-01-27T08:30:43.816Z,101399.94
2023-01-27T08:35:51.245Z,101403.34
2023-01-27T08:41:00.242Z,101411.16
2023-01-27T08:46:07.471Z,101415.53
2023-01-27T08:51:15.884Z,101425.69
2023-01-27T08:56:24.324Z,101425.47
2023-01-27T09:01:30.749Z,101416.03
2023-01-27T09:06:37.427Z,101413.59
2023-01-27T09:11:47.678Z,101416.38
2023-01-27T09:16:54.190Z,101425.09
2023-01-27T09:22:00.695Z,101419.94
2023-01-27T09:27:08.803Z,101421.81
2023-01-27T09:32:15.536Z,101428.81
2023-01-27T09:37:22.176Z,101427.16
2023-01-27T09:42:54.747Z,101434.00
2023-01-27T09:48:26.355Z,101426.31
2023-01-27T09:54:09.538Z,101432.44
2023-01-27T09:59:40.458Z,101447.06
2023-01-27T10:05:21.693Z,101437.59
2023-01-27T10:10:51.128Z,101434.34
2023-01-27T10:16:23.601Z,101440.44
2023-01-27T10:21:46.155Z,101443.03
2023-01-27T10:26:57.415Z,101447.38
2023-01-27T10:32:10.778Z,101459.03
2023-01-27T10:37:31.142Z,101450.63
2023-01-27T10:42:46.919Z,101450.69
2023-01-27T10:48:17.321Z,101456.59
2023-01-27T10:53:33.897Z,101462.00
2023-01-27T10:58:51.525Z,101459.47
2023-01-27T11:04:05.749Z,101451.06
2023-01-27T11:09:26.451Z,101447.69
2023-01-27T11:14:39.546Z,101439.31
2023-01-27T11:19:58.531Z,101433.22
2023-01-27T11:25:15.231Z,101445.97
2023-01-27T11:30:29.870Z,101434.22
2023-01-27T11:35:38.015Z,101431.56
2023-01-27T11:40:46.948Z,101431.69
2023-01-27T12:03:13.045Z,101431.06
2023-01-27T12:08:42.048Z,101429.19
2023-01-27T12:13:55.508Z,101430.00
2023-01-27T12:19:07.119Z,101429.16
2023-01-27T12:24:28.292Z,101433.44
2023-01-27T12:29:44.546Z,101431.53
2023-01-27T12:34:59.056Z,101432.38
2023-01-27T12:40:09.232Z,101430.09
2023-01-27T12:45:26.844Z,101436.78
2023-01-27T12:50:38.475Z,101427.44
2023-01-27T12:55:51.308Z,101433.53
2023-01-27T13:00:58.380Z,101437.00
2023-01-27T13:06:07.466Z,101440.47
2023-01-27T13:11:15.865Z,101446.38
2023-01-27T13:16:30.101Z,101448.66
2023-01-27T13:21:41.151Z,101457.22
2023-01-27T13:26:48.844Z,101457.22
2023-01-27T13:32:00.324Z,101457.22
2023-01-27T13:37:16.604Z,101457.22
2023-01-27T13:42:31.963Z,101457.22
2023-01-27T13:47:50.718Z,101459.31
2023-01-27T13:53:01.433Z,101448.84
2023-01-27T13:58:13.551Z,101445.25
2023-01-27T14:03:48.176Z,101440.41
2023-01-27T14:09:13.129Z,101440.41
2023-01-27T14:14:43.655Z,101452.41
2023-01-27T14:20:25.112Z,101454.97
2023-01-27T14:25:42.092Z,101457.47
2023-01-27T14:30:57.291Z,101459.97
2023-01-27T14:36:18.736Z,101451.44
2023-01-27T14:41:35.889Z,101454.78
2023-01-27T14:47:08.824Z,101447.06
2023-01-27T14:52:32.353Z,101444.41
2023-01-27T14:57:49.400Z,101444.50
2023-01-27T15:03:11.105Z,101459.00
2023-01-27T15:08:28.558Z,101458.19
2023-01-27T15:13:56.499Z,101466.53
2023-01-27T15:19:39.515Z,101470.84
2023-01-27T15:25:05.911Z,101474.06
2023-01-27T15:30:26.958Z,101479.00
2023-01-27T15:35:38.353Z,101474.63
2023-01-27T15:41:13.273Z,101485.00
2023-01-27T15:46:32.629Z,101478.88
2023-01-27T15:51:40.191Z,101478.88
2023-01-27T15:56:53.888Z,101475.41
2023-01-27T16:02:17.427Z,101481.34
2023-01-27T16:07:32.670Z,101493.25
2023-01-27T16:12:45.345Z,101501.69
2023-01-27T16:18:29.292Z,101511.97
2023-01-27T16:23:50.687Z,101511.75
2023-01-27T16:29:25.682Z,101509.94
2023-01-27T16:34:41.717Z,101509.06
2023-01-27T16:39:55.460Z,101523.69
2023-01-27T16:45:10.249Z,101522.03
2023-01-27T16:50:42.043Z,101528.00
2023-01-27T16:56:00.474Z,101526.94
2023-01-27T17:01:07.920Z,101521.03
2023-01-27T17:06:19.073Z,101528.78
2023-01-27T17:11:34.381Z,101521.13
2023-01-27T17:16:45.188Z,101527.81
2023-01-27T17:21:59.071Z,101527.16
2023-01-27T17:27:11.923Z,101519.31
2023-01-27T17:32:24.872Z,101529.72
2023-01-27T17:37:35.401Z,101526.31
2023-01-27T17:42:43.014Z,101534.09
2023-01-27T17:47:50.731Z,101542.00
2023-01-27T17:53:00.837Z,101548.16
2023-01-27T17:58:12.523Z,101546.31
2023-01-27T18:03:25.847Z,101543.06
2023-01-27T18:08:39.069Z,101538.81
2023-01-27T18:13:49.467Z,101550.63
2023-01-27T18:19:10.670Z,101541.28
2023-01-27T18:24:23.784Z,101548.06
2023-01-27T18:29:39.500Z,101548.13
2023-01-27T18:34:56.613Z,101550.69
2023-01-27T19:12:19.100Z,101586.22
2023-01-27T19:17:30.332Z,101592.22
2023-01-27T19:22:41.604Z,101606.00
2023-01-27T19:27:58.298Z,101608.44
2023-01-27T19:33:22.430Z,101605.13
2023-01-27T19:38:31.979Z,101613.88
2023-01-27T19:43:42.516Z,101611.25
2023-01-27T19:48:52.871Z,101613.88
2023-01-27T19:54:01.370Z,101615.44
2023-01-27T19:59:15.899Z,101615.47
2023-01-27T20:04:24.977Z,101618.03
2023-01-27T20:09:33.732Z,101623.09
2023-01-27T20:14:44.308Z,101633.16
2023-01-27T20:19:54.864Z,101638.44
2023-01-27T20:25:16.845Z,101632.56
2023-01-27T20:31:04.802Z,101637.81
2023-01-27T20:36:53.278Z,101640.50
2023-01-27T20:42:14.842Z,101636.28
2023-01-27T20:48:28.553Z,101646.63
2023-01-27T20:54:11.581Z,101650.91
2023-01-27T21:00:13.351Z,101645.00
2023-01-27T21:05:59.749Z,101648.44
2023-01-27T21:11:30.773Z,101643.31
2023-01-27T21:23:19.864Z,101648.31
2023-01-27T21:29:09.810Z,101639.66
2023-01-27T21:35:16.809Z,101642.91
2023-01-27T21:48:05.082Z,101639.47
2023-01-27T21:54:03.015Z,101637.59
2023-01-27T22:00:34.676Z,101638.34
2023-01-27T22:12:37.343Z,101629.03
2023-01-27T22:17:58.366Z,101620.31
2023-01-27T22:24:07.482Z,101620.22
2023-01-27T22:30:06.559Z,101618.50
2023-01-27T22:35:46.000Z,101624.47
2023-01-27T22:41:38.055Z,101615.19
2023-01-27T22:47:56.135Z,101609.97
2023-01-27T22:53:31.016Z,101613.34
2023-01-27T22:58:50.243Z,101616.72
2023-01-27T23:04:42.683Z,101614.13
2023-01-27T23:09:58.247Z,101612.41
2023-01-27T23:15:57.432Z,101604.84
2023-01-27T23:21:41.292Z,101601.28
2023-01-27T23:26:59.560Z,101603.00
2023-01-27T23:32:09.300Z,101592.84
2023-01-27T23:37:18.217Z,101598.72
2023-01-27T23:42:28.914Z,101599.56
2023-01-27T23:48:11.904Z,101603.84
2023-01-27T23:53:26.415Z,101608.09
2023-01-27T23:58:45.986Z,101609.81
